• Join FlightAware (Why Join?)
  • Login
  • US Flag 
09:26PM EDT


 

Airport Tracker/Info


-or-


 

Live Flight TrackerFlight Track Log ✈ FLG3735 ✈ 20-May-2013 ✈ KDTW - KALB

Flight Track Log - Related Links

Times and Time Zones

All times are in EDT time to prevent confusion due to time zone crossing. See the FLG3735 flight status page for this flight to view local times or setup timezone preferences in your user account.

Time Position Orientation Groundspeed Altitude Reporting Facility
EDT Latitude Longitude Course Direction KTS MPH feet Rate Location/Type
10:27PM 42.2017 -83.3583 56° Northeast 142 163 1,300  Level Cleveland Center
10:28PM 42.1497 -83.3447 169° South 197 227 3,300 1,740 Climbing Cleveland Center
10:29PM 42.0947 -83.2975 147° Southeast 281 323 5,300 2,220 Climbing Cleveland Center
10:30PM 42.1364 -83.2097 57° Northeast 294 338 8,000 2,220 Climbing Cleveland Center
10:31PM 42.3167 -82.7493 82° East  Level FlightAware Approximate
10:31PM 42.1478 -83.1569 74° East 290 334 8,900  Level Cleveland Center
10:31PM 42.1678 -83.1017 64° Northeast 318 366 10,000 1,260 Climbing Cleveland Center
10:32PM 42.3321 -82.5952 82° East  Level FlightAware Approximate
10:32PM 42.1858 -83.0436 67° East 333 383 10,200  Level Cleveland Center
10:33PM 42.3665 -82.4503 56° Northeast  Level FlightAware Approximate
10:33PM 42.2239 -82.9161 68° East 356 410 12,000  Level Cleveland Center
10:34PM 42.2639 -82.7856 67° East 367 422 13,900 1,620 Climbing Cleveland Center
10:35PM 42.3083 -82.6469 67° East 379 436 15,300 1,500 Climbing Cleveland Center
10:36PM 42.3503 -82.5078 68° East 390 449 17,000 1,800 Climbing Cleveland Center
10:37PM 42.3650 -82.3619 82° East 390 449 18,900 1,380 Climbing Cleveland Center
10:38PM 42.3675 -82.2075 89° East 390 449 19,800 960 Climbing Cleveland Center
10:39PM 42.3800 -82.0503 84° East 412 474 20,900 1,200 Climbing Cleveland Center
10:40PM 42.3944 -81.8961 83° East 423 487 22,300 1,200 Climbing Cleveland Center
10:41PM 42.4086 -81.7192 84° East 431 496 23,400 1,140 Climbing Cleveland Center
10:42PM 42.4206 -81.5619 84° East 425 489 24,600 1,080 Climbing Cleveland Center
10:43PM 42.4322 -81.4017 84° East 425 489 25,600 840 Climbing Cleveland Center
10:44PM 42.4436 -81.2417 84° East 425 489 26,300 600 Climbing Cleveland Center
10:45PM 42.4486 -81.0783 88° East 420 483 26,900 300 Climbing Cleveland Center
10:46PM 42.4264 -80.9150 100° East 432 497 27,000  Climbing Cleveland Center
10:47PM 42.4058 -80.7464 99° East 449 517 27,000  Level Cleveland Center
10:48PM 42.3853 -80.5747 99° East 454 522 27,000  Level Cleveland Center
10:49PM 42.3683 -80.4231 99° East 454 522 27,000  Level Cleveland Center
10:50PM 42.3847 -80.2458 83° East 454 522 27,000  Level Cleveland Center
10:51PM 42.3986 -80.0742 84° East 469 540 27,000  Level Cleveland Center
10:52PM 42.4142 -79.8772 84° East 469 540 27,000  Level Cleveland Center
10:53PM 42.4297 -79.7000 83° East 469 540 27,000  Level Cleveland Center
10:54PM 42.4428 -79.5253 84° East 469 540 27,000  Level Cleveland Center
10:55PM 42.4558 -79.3478 84° East 464 534 27,000  Level Cleveland Center
10:56PM 42.4725 -79.1731 83° East 464 534 27,000  Level Cleveland Center
10:57PM 42.4847 -78.9925 85° East 464 534 27,000  Level Cleveland Center
10:58PM 42.4989 -78.8203 84° East 464 534 27,000  Level Cleveland Center
10:59PM 42.5106 -78.6425 85° East 464 534 27,000  Level Cleveland Center
11:00PM 42.5219 -78.4647 85° East 464 534 27,000  Level Cleveland Center
11:01PM 42.5353 -78.2867 84° East 464 534 27,000  Level Cleveland Center
11:02PM 42.5464 -78.1114 85° East 464 534 27,000  Level Cleveland Center
11:03PM 42.5569 -77.9336 85° East 464 534 27,000  Level Cleveland Center
11:04PM 42.5678 -77.7753 85° East 464 534 27,000  Level Cleveland Center
11:05PM 42.5781 -77.5969 85° East 464 534 27,000  Level Cleveland Center
11:07PM 42.5981 -77.2642 85° East 483 556 27,000  Level Boston Center
11:08PM 42.6094 -77.0900 85° East 476 548 27,000  Level Boston Center
11:09PM 42.6186 -76.9128 86° East 471 542 27,000  Level Boston Center
11:10PM 42.6275 -76.7383 86° East 471 542 27,000  Level Boston Center
11:11PM 42.6383 -76.5583 85° East 471 542 27,000  Level Boston Center
11:12PM 42.6489 -76.3811 85° East 471 542 27,000  Level Boston Center
11:13PM 42.6569 -76.2039 86° East 471 542 27,000  Level Boston Center
11:14PM 42.6650 -76.0236 86° East 471 542 27,000  Level Boston Center
11:15PM 42.6725 -75.8461 87° East 471 542 27,000  Level Boston Center
11:16PM 42.6797 -75.6683 87° East 477 549 27,000 -1,080 Level Boston Center
11:17PM 42.6889 -75.4881 86° East 477 549 24,900 -2,340 Descending Boston Center
11:18PM 42.6950 -75.3303 87° East 477 549 22,400 -2,520 Descending Boston Center
11:19PM 42.7014 -75.1553 87° East 459 528 20,000 -2,400 Descending Boston Center
11:20PM 42.7072 -75.0000 87° East 450 518 17,900 -2,400 Descending Boston Center
11:21PM 42.7144 -74.8564 86° East 421 484 15,700 -2,280 Descending Boston Center
11:22PM 42.7072 -74.7006 94° East 410 472 13,600 -1,980 Descending Boston Center
11:23PM 42.6811 -74.5469 103° East 410 472 11,700 -1,620 Descending Boston Center
11:24PM 42.6564 -74.4078 104° East 336 387 10,400 -1,320 Descending Boston Center
11:25PM 42.6394 -74.2944 101° East 292 336 9,100 -1,440 Descending Boston Center
11:26PM 42.6206 -74.1839 103° East 299 344 7,600 -1,680 Descending Boston Center
11:27PM 42.6033 -74.0789 103° East 290 334 5,800 -1,800 Descending Boston Center
11:28PM 42.5839 -73.9769 104° East 275 316 4,000 -1,200 Descending Boston Center
11:29PM 42.5831 -73.8811 91° East 227 261 3,500 -780 Descending Boston Center
11:30PM 42.6025 -73.8194 67° East 196 226 2,600 -660 Descending Boston Center
11:31PM 42.6553 -73.7753 32° Northeast 193 222 2,200 -900 Descending Boston Center
11:32PM 42.7028 -73.8075 334° Northwest 158 182 900 -1,620 Descending Boston Center
11:35PM 42.7333 -73.8000 North  Level FlightAware Approximate
11:42PM 42.7491 -73.8020 North  Level Estimated